sensor_id;sensor_type;location;lat;lon;timestamp;P1;durP1;ratioP1;P2;durP2;ratioP2
37973;SDS011;23796;51.458;7.000;2023-04-23T00:00:45;33.33;;;29.75;;
37973;SDS011;23796;51.458;7.000;2023-04-23T00:03:13;34.45;;;30.70;;
37973;SDS011;23796;51.458;7.000;2023-04-23T00:05:43;33.03;;;29.48;;
37973;SDS011;23796;51.458;7.000;2023-04-23T00:08:09;33.05;;;29.65;;
37973;SDS011;23796;51.458;7.000;2023-04-23T00:10:35;33.70;;;30.17;;
37973;SDS011;23796;51.458;7.000;2023-04-23T00:13:01;34.40;;;30.70;;
37973;SDS011;23796;51.458;7.000;2023-04-23T00:15:30;33.22;;;29.67;;
37973;SDS011;23796;51.458;7.000;2023-04-23T00:17:59;33.28;;;29.95;;
37973;SDS011;23796;51.458;7.000;2023-04-23T00:20:26;32.95;;;29.55;;
37973;SDS011;23796;51.458;7.000;2023-04-23T00:22:52;30.48;;;27.35;;
37973;SDS011;23796;51.458;7.000;2023-04-23T00:25:18;32.10;;;28.80;;
37973;SDS011;23796;51.458;7.000;2023-04-23T00:27:43;32.17;;;28.77;;
37973;SDS011;23796;51.458;7.000;2023-04-23T00:30:16;32.65;;;29.35;;
37973;SDS011;23796;51.458;7.000;2023-04-23T00:32:42;33.75;;;30.25;;
37973;SDS011;23796;51.458;7.000;2023-04-23T00:35:10;32.30;;;29.00;;
37973;SDS011;23796;51.458;7.000;2023-04-23T00:37:38;31.25;;;28.10;;
37973;SDS011;23796;51.458;7.000;2023-04-23T00:40:04;32.85;;;29.33;;
37973;SDS011;23796;51.458;7.000;2023-04-23T00:42:31;32.80;;;29.52;;
37973;SDS011;23796;51.458;7.000;2023-04-23T00:44:57;32.58;;;29.17;;
37973;SDS011;23796;51.458;7.000;2023-04-23T00:47:25;32.88;;;29.30;;
37973;SDS011;23796;51.458;7.000;2023-04-23T00:49:52;32.03;;;28.73;;
37973;SDS011;23796;51.458;7.000;2023-04-23T00:52:19;31.98;;;28.67;;
37973;SDS011;23796;51.458;7.000;2023-04-23T00:54:45;30.95;;;27.85;;
37973;SDS011;23796;51.458;7.000;2023-04-23T00:57:11;29.67;;;26.45;;
37973;SDS011;23796;51.458;7.000;2023-04-23T00:59:36;28.50;;;25.70;;
37973;SDS011;23796;51.458;7.000;2023-04-23T01:02:04;28.65;;;25.65;;
37973;SDS011;23796;51.458;7.000;2023-04-23T01:04:33;28.58;;;25.65;;
37973;SDS011;23796;51.458;7.000;2023-04-23T01:07:02;26.58;;;23.88;;
37973;SDS011;23796;51.458;7.000;2023-04-23T01:09:31;25.08;;;22.48;;
37973;SDS011;23796;51.458;7.000;2023-04-23T01:11:57;24.60;;;22.00;;
37973;SDS011;23796;51.458;7.000;2023-04-23T01:14:23;24.30;;;21.70;;
37973;SDS011;23796;51.458;7.000;2023-04-23T01:16:50;22.60;;;20.30;;
37973;SDS011;23796;51.458;7.000;2023-04-23T01:19:16;22.90;;;20.58;;
37973;SDS011;23796;51.458;7.000;2023-04-23T01:21:47;20.95;;;18.92;;
37973;SDS011;23796;51.458;7.000;2023-04-23T01:24:17;22.27;;;20.05;;
37973;SDS011;23796;51.458;7.000;2023-04-23T01:26:45;21.15;;;18.83;;
37973;SDS011;23796;51.458;7.000;2023-04-23T01:29:11;20.92;;;18.70;;
37973;SDS011;23796;51.458;7.000;2023-04-23T01:31:37;21.52;;;19.33;;
37973;SDS011;23796;51.458;7.000;2023-04-23T01:34:06;19.75;;;17.80;;
37973;SDS011;23796;51.458;7.000;2023-04-23T01:36:34;20.75;;;18.65;;
37973;SDS011;23796;51.458;7.000;2023-04-23T01:39:02;19.48;;;17.58;;
37973;SDS011;23796;51.458;7.000;2023-04-23T01:41:29;19.23;;;17.33;;
37973;SDS011;23796;51.458;7.000;2023-04-23T01:43:56;19.80;;;17.80;;
37973;SDS011;23796;51.458;7.000;2023-04-23T01:46:24;19.55;;;17.45;;
37973;SDS011;23796;51.458;7.000;2023-04-23T01:48:52;19.90;;;17.77;;
37973;SDS011;23796;51.458;7.000;2023-04-23T01:51:18;20.52;;;18.58;;
37973;SDS011;23796;51.458;7.000;2023-04-23T01:53:47;20.13;;;18.13;;
37973;SDS011;23796;51.458;7.000;2023-04-23T01:56:13;18.60;;;16.70;;
37973;SDS011;23796;51.458;7.000;2023-04-23T01:58:46;19.00;;;17.13;;
37973;SDS011;23796;51.458;7.000;2023-04-23T02:01:11;18.73;;;16.80;;
37973;SDS011;23796;51.458;7.000;2023-04-23T02:03:37;19.65;;;17.75;;
37973;SDS011;23796;51.458;7.000;2023-04-23T02:06:05;19.48;;;17.48;;
37973;SDS011;23796;51.458;7.000;2023-04-23T02:08:30;19.63;;;17.63;;
37973;SDS011;23796;51.458;7.000;2023-04-23T02:10:56;20.10;;;18.10;;
37973;SDS011;23796;51.458;7.000;2023-04-23T02:13:24;19.20;;;17.30;;
37973;SDS011;23796;51.458;7.000;2023-04-23T02:15:50;19.23;;;17.17;;
37973;SDS011;23796;51.458;7.000;2023-04-23T02:18:17;20.15;;;18.08;;
37973;SDS011;23796;51.458;7.000;2023-04-23T02:20:45;21.17;;;18.98;;
37973;SDS011;23796;51.458;7.000;2023-04-23T02:23:13;19.90;;;17.90;;
37973;SDS011;23796;51.458;7.000;2023-04-23T02:25:39;23.27;;;19.15;;
37973;SDS011;23796;51.458;7.000;2023-04-23T02:28:07;20.58;;;18.55;;
37973;SDS011;23796;51.458;7.000;2023-04-23T02:30:36;20.58;;;18.55;;
37973;SDS011;23796;51.458;7.000;2023-04-23T02:33:10;19.67;;;17.67;;
37973;SDS011;23796;51.458;7.000;2023-04-23T02:35:36;20.35;;;18.25;;
37973;SDS011;23796;51.458;7.000;2023-04-23T02:38:01;19.95;;;17.90;;
37973;SDS011;23796;51.458;7.000;2023-04-23T02:40:27;20.85;;;18.85;;
37973;SDS011;23796;51.458;7.000;2023-04-23T02:42:53;21.00;;;18.88;;
37973;SDS011;23796;51.458;7.000;2023-04-23T02:45:18;21.65;;;19.38;;
37973;SDS011;23796;51.458;7.000;2023-04-23T02:47:44;20.95;;;18.95;;
37973;SDS011;23796;51.458;7.000;2023-04-23T02:50:09;20.75;;;18.60;;
37973;SDS011;23796;51.458;7.000;2023-04-23T02:52:37;21.38;;;19.27;;
37973;SDS011;23796;51.458;7.000;2023-04-23T02:55:05;20.60;;;18.42;;
37973;SDS011;23796;51.458;7.000;2023-04-23T02:57:32;21.20;;;19.15;;
37973;SDS011;23796;51.458;7.000;2023-04-23T02:59:58;18.63;;;16.73;;
37973;SDS011;23796;51.458;7.000;2023-04-23T03:02:24;20.67;;;18.52;;
37973;SDS011;23796;51.458;7.000;2023-04-23T03:04:49;20.77;;;18.77;;
37973;SDS011;23796;51.458;7.000;2023-04-23T03:07:15;21.23;;;19.10;;
37973;SDS011;23796;51.458;7.000;2023-04-23T03:09:42;19.58;;;17.67;;
37973;SDS011;23796;51.458;7.000;2023-04-23T03:12:07;20.60;;;18.60;;
37973;SDS011;23796;51.458;7.000;2023-04-23T03:14:35;20.38;;;18.38;;
37973;SDS011;23796;51.458;7.000;2023-04-23T03:17:01;19.70;;;17.90;;
37973;SDS011;23796;51.458;7.000;2023-04-23T03:19:29;20.48;;;18.38;;
37973;SDS011;23796;51.458;7.000;2023-04-23T03:21:54;20.83;;;18.52;;
37973;SDS011;23796;51.458;7.000;2023-04-23T03:24:20;19.83;;;17.92;;
37973;SDS011;23796;51.458;7.000;2023-04-23T03:26:51;18.90;;;17.08;;
37973;SDS011;23796;51.458;7.000;2023-04-23T03:29:19;21.30;;;19.20;;
37973;SDS011;23796;51.458;7.000;2023-04-23T03:31:47;19.95;;;17.52;;
37973;SDS011;23796;51.458;7.000;2023-04-23T03:34:12;19.33;;;17.55;;
37973;SDS011;23796;51.458;7.000;2023-04-23T03:36:40;19.58;;;17.67;;
37973;SDS011;23796;51.458;7.000;2023-04-23T03:39:08;20.05;;;18.10;;
37973;SDS011;23796;51.458;7.000;2023-04-23T03:41:34;19.20;;;17.30;;
37973;SDS011;23796;51.458;7.000;2023-04-23T03:44:00;19.83;;;17.88;;
37973;SDS011;23796;51.458;7.000;2023-04-23T03:46:28;20.25;;;18.27;;
37973;SDS011;23796;51.458;7.000;2023-04-23T03:48:56;19.75;;;17.85;;
37973;SDS011;23796;51.458;7.000;2023-04-23T03:51:21;19.52;;;17.48;;
37973;SDS011;23796;51.458;7.000;2023-04-23T03:53:51;19.55;;;17.55;;
37973;SDS011;23796;51.458;7.000;2023-04-23T03:56:16;19.25;;;17.20;;
37973;SDS011;23796;51.458;7.000;2023-04-23T03:58:42;19.83;;;17.98;;
37973;SDS011;23796;51.458;7.000;2023-04-23T04:01:08;19.65;;;17.85;;
37973;SDS011;23796;51.458;7.000;2023-04-23T04:03:33;18.23;;;16.50;;
37973;SDS011;23796;51.458;7.000;2023-04-23T04:05:59;19.05;;;17.15;;
37973;SDS011;23796;51.458;7.000;2023-04-23T04:08:29;18.02;;;16.33;;
37973;SDS011;23796;51.458;7.000;2023-04-23T04:10:55;18.80;;;16.90;;
37973;SDS011;23796;51.458;7.000;2023-04-23T04:13:23;19.73;;;17.73;;
37973;SDS011;23796;51.458;7.000;2023-04-23T04:15:51;18.42;;;16.35;;
37973;SDS011;23796;51.458;7.000;2023-04-23T04:18:16;18.13;;;16.42;;
37973;SDS011;23796;51.458;7.000;2023-04-23T04:20:42;16.63;;;15.00;;
37973;SDS011;23796;51.458;7.000;2023-04-23T04:23:09;17.00;;;15.30;;
37973;SDS011;23796;51.458;7.000;2023-04-23T04:25:35;16.55;;;14.93;;
37973;SDS011;23796;51.458;7.000;2023-04-23T04:28:04;14.57;;;13.07;;
37973;SDS011;23796;51.458;7.000;2023-04-23T04:30:33;15.57;;;13.93;;
37973;SDS011;23796;51.458;7.000;2023-04-23T04:33:02;14.32;;;12.85;;
37973;SDS011;23796;51.458;7.000;2023-04-23T04:35:28;14.05;;;12.57;;
37973;SDS011;23796;51.458;7.000;2023-04-23T04:37:55;14.13;;;12.73;;
37973;SDS011;23796;51.458;7.000;2023-04-23T04:40:22;12.60;;;11.30;;
37973;SDS011;23796;51.458;7.000;2023-04-23T04:42:50;12.20;;;11.00;;
37973;SDS011;23796;51.458;7.000;2023-04-23T04:45:17;12.25;;;11.05;;
37973;SDS011;23796;51.458;7.000;2023-04-23T04:47:46;12.77;;;11.50;;
37973;SDS011;23796;51.458;7.000;2023-04-23T04:50:16;12.80;;;11.55;;
37973;SDS011;23796;51.458;7.000;2023-04-23T04:52:42;12.50;;;11.30;;
37973;SDS011;23796;51.458;7.000;2023-04-23T04:55:10;12.80;;;10.50;;
37973;SDS011;23796;51.458;7.000;2023-04-23T04:57:38;13.10;;;11.73;;
37973;SDS011;23796;51.458;7.000;2023-04-23T05:00:26;12.02;;;10.48;;
37973;SDS011;23796;51.458;7.000;2023-04-23T05:02:53;11.25;;;10.02;;
37973;SDS011;23796;51.458;7.000;2023-04-23T05:05:23;11.77;;;10.63;;
37973;SDS011;23796;51.458;7.000;2023-04-23T05:07:52;12.50;;;11.30;;
37973;SDS011;23796;51.458;7.000;2023-04-23T05:10:18;12.95;;;11.65;;
37973;SDS011;23796;51.458;7.000;2023-04-23T05:12:44;12.57;;;11.23;;
37973;SDS011;23796;51.458;7.000;2023-04-23T05:15:12;12.68;;;11.27;;
37973;SDS011;23796;51.458;7.000;2023-04-23T05:17:41;12.48;;;11.23;;
37973;SDS011;23796;51.458;7.000;2023-04-23T05:20:10;12.90;;;11.65;;
37973;SDS011;23796;51.458;7.000;2023-04-23T05:22:39;12.38;;;11.18;;
37973;SDS011;23796;51.458;7.000;2023-04-23T05:25:06;11.90;;;10.70;;
37973;SDS011;23796;51.458;7.000;2023-04-23T05:27:33;11.90;;;10.65;;
37973;SDS011;23796;51.458;7.000;2023-04-23T05:29:59;11.05;;;9.88;;
37973;SDS011;23796;51.458;7.000;2023-04-23T05:32:28;11.25;;;10.18;;
37973;SDS011;23796;51.458;7.000;2023-04-23T05:34:54;11.52;;;10.32;;
37973;SDS011;23796;51.458;7.000;2023-04-23T05:37:22;10.98;;;9.48;;
37973;SDS011;23796;51.458;7.000;2023-04-23T05:39:47;10.18;;;9.18;;
37973;SDS011;23796;51.458;7.000;2023-04-23T05:42:15;10.57;;;9.48;;
37973;SDS011;23796;51.458;7.000;2023-04-23T05:44:43;10.35;;;8.68;;
37973;SDS011;23796;51.458;7.000;2023-04-23T05:47:11;10.75;;;8.82;;
37973;SDS011;23796;51.458;7.000;2023-04-23T05:49:37;10.10;;;8.80;;
37973;SDS011;23796;51.458;7.000;2023-04-23T05:52:03;11.48;;;9.07;;
37973;SDS011;23796;51.458;7.000;2023-04-23T05:54:29;9.75;;;8.52;;
37973;SDS011;23796;51.458;7.000;2023-04-23T05:56:54;9.73;;;8.75;;
37973;SDS011;23796;51.458;7.000;2023-04-23T05:59:20;8.90;;;7.88;;
37973;SDS011;23796;51.458;7.000;2023-04-23T06:01:48;9.40;;;8.48;;
37973;SDS011;23796;51.458;7.000;2023-04-23T06:04:14;10.52;;;8.18;;
37973;SDS011;23796;51.458;7.000;2023-04-23T06:06:43;9.10;;;8.20;;
37973;SDS011;23796;51.458;7.000;2023-04-23T06:09:11;9.63;;;8.63;;
37973;SDS011;23796;51.458;7.000;2023-04-23T06:11:39;8.85;;;7.95;;
37973;SDS011;23796;51.458;7.000;2023-04-23T06:14:07;8.45;;;7.65;;
37973;SDS011;23796;51.458;7.000;2023-04-23T06:16:35;8.70;;;7.80;;
37973;SDS011;23796;51.458;7.000;2023-04-23T06:19:01;10.35;;;8.25;;
37973;SDS011;23796;51.458;7.000;2023-04-23T06:21:27;9.73;;;8.63;;
37973;SDS011;23796;51.458;7.000;2023-04-23T06:23:58;9.23;;;7.82;;
37973;SDS011;23796;51.458;7.000;2023-04-23T06:26:23;9.40;;;8.40;;
37973;SDS011;23796;51.458;7.000;2023-04-23T06:28:52;11.23;;;9.95;;
37973;SDS011;23796;51.458;7.000;2023-04-23T06:31:17;10.13;;;8.77;;
37973;SDS011;23796;51.458;7.000;2023-04-23T06:33:43;10.63;;;8.55;;
37973;SDS011;23796;51.458;7.000;2023-04-23T06:36:11;9.07;;;7.53;;
37973;SDS011;23796;51.458;7.000;2023-04-23T06:38:40;9.02;;;8.13;;
37973;SDS011;23796;51.458;7.000;2023-04-23T06:41:09;8.63;;;7.50;;
37973;SDS011;23796;51.458;7.000;2023-04-23T06:43:36;8.52;;;7.53;;
37973;SDS011;23796;51.458;7.000;2023-04-23T06:46:04;7.88;;;7.07;;
37973;SDS011;23796;51.458;7.000;2023-04-23T06:48:30;8.55;;;7.75;;
37973;SDS011;23796;51.458;7.000;2023-04-23T06:50:56;7.80;;;7.00;;
37973;SDS011;23796;51.458;7.000;2023-04-23T06:53:22;11.07;;;7.90;;
37973;SDS011;23796;51.458;7.000;2023-04-23T06:55:47;8.30;;;7.47;;
37973;SDS011;23796;51.458;7.000;2023-04-23T06:58:16;7.60;;;6.75;;
37973;SDS011;23796;51.458;7.000;2023-04-23T07:00:44;8.82;;;7.63;;
37973;SDS011;23796;51.458;7.000;2023-04-23T07:03:10;8.70;;;7.13;;
37973;SDS011;23796;51.458;7.000;2023-04-23T07:05:41;8.32;;;6.97;;
37973;SDS011;23796;51.458;7.000;2023-04-23T07:08:09;8.38;;;6.07;;
37973;SDS011;23796;51.458;7.000;2023-04-23T07:10:35;7.18;;;6.43;;
37973;SDS011;23796;51.458;7.000;2023-04-23T07:13:02;7.30;;;6.38;;
37973;SDS011;23796;51.458;7.000;2023-04-23T07:15:30;6.38;;;5.68;;
37973;SDS011;23796;51.458;7.000;2023-04-23T07:17:56;7.20;;;5.43;;
37973;SDS011;23796;51.458;7.000;2023-04-23T07:20:21;8.30;;;6.05;;
37973;SDS011;23796;51.458;7.000;2023-04-23T07:22:47;9.25;;;5.40;;
37973;SDS011;23796;51.458;7.000;2023-04-23T07:25:15;6.75;;;5.88;;
37973;SDS011;23796;51.458;7.000;2023-04-23T07:27:41;6.50;;;5.05;;
37973;SDS011;23796;51.458;7.000;2023-04-23T07:30:06;8.05;;;5.45;;
37973;SDS011;23796;51.458;7.000;2023-04-23T07:32:38;6.47;;;4.60;;
37973;SDS011;23796;51.458;7.000;2023-04-23T07:35:10;6.80;;;5.35;;
37973;SDS011;23796;51.458;7.000;2023-04-23T07:37:36;8.40;;;4.88;;
37973;SDS011;23796;51.458;7.000;2023-04-23T07:40:05;7.90;;;4.70;;
37973;SDS011;23796;51.458;7.000;2023-04-23T07:42:32;7.00;;;4.53;;
37973;SDS011;23796;51.458;7.000;2023-04-23T07:44:58;5.47;;;4.05;;
37973;SDS011;23796;51.458;7.000;2023-04-23T07:47:23;6.00;;;3.95;;
37973;SDS011;23796;51.458;7.000;2023-04-23T07:49:49;6.03;;;4.00;;
37973;SDS011;23796;51.458;7.000;2023-04-23T07:52:15;5.78;;;3.70;;
37973;SDS011;23796;51.458;7.000;2023-04-23T07:54:41;5.97;;;4.00;;
37973;SDS011;23796;51.458;7.000;2023-04-23T07:57:07;7.90;;;4.25;;
37973;SDS011;23796;51.458;7.000;2023-04-23T07:59:36;6.72;;;3.88;;
37973;SDS011;23796;51.458;7.000;2023-04-23T08:02:05;6.13;;;3.70;;
37973;SDS011;23796;51.458;7.000;2023-04-23T08:04:33;7.35;;;3.50;;
37973;SDS011;23796;51.458;7.000;2023-04-23T08:07:01;7.68;;;3.30;;
37973;SDS011;23796;51.458;7.000;2023-04-23T08:09:27;4.95;;;3.50;;
37973;SDS011;23796;51.458;7.000;2023-04-23T08:11:53;7.05;;;3.42;;
37973;SDS011;23796;51.458;7.000;2023-04-23T08:14:19;6.50;;;3.67;;
37973;SDS011;23796;51.458;7.000;2023-04-23T08:16:44;5.93;;;3.28;;
37973;SDS011;23796;51.458;7.000;2023-04-23T08:19:10;5.97;;;3.20;;
37973;SDS011;23796;51.458;7.000;2023-04-23T08:21:36;7.55;;;3.55;;
37973;SDS011;23796;51.458;7.000;2023-04-23T08:24:01;6.82;;;3.42;;
37973;SDS011;23796;51.458;7.000;2023-04-23T08:26:32;5.85;;;3.70;;
37973;SDS011;23796;51.458;7.000;2023-04-23T08:28:58;5.35;;;3.60;;
37973;SDS011;23796;51.458;7.000;2023-04-23T08:31:27;5.18;;;3.53;;
37973;SDS011;23796;51.458;7.000;2023-04-23T08:33:52;7.97;;;3.40;;
37973;SDS011;23796;51.458;7.000;2023-04-23T08:36:18;5.68;;;3.17;;
37973;SDS011;23796;51.458;7.000;2023-04-23T08:38:44;5.38;;;3.50;;
37973;SDS011;23796;51.458;7.000;2023-04-23T08:41:10;6.53;;;3.40;;
37973;SDS011;23796;51.458;7.000;2023-04-23T08:44:40;6.07;;;3.55;;
37973;SDS011;23796;51.458;7.000;2023-04-23T08:46:36;6.45;;;3.28;;
37973;SDS011;23796;51.458;7.000;2023-04-23T08:49:12;6.07;;;3.28;;
37973;SDS011;23796;51.458;7.000;2023-04-23T08:51:41;7.90;;;3.70;;
37973;SDS011;23796;51.458;7.000;2023-04-23T08:54:12;6.70;;;3.10;;
37973;SDS011;23796;51.458;7.000;2023-04-23T08:56:42;6.95;;;3.35;;
37973;SDS011;23796;51.458;7.000;2023-04-23T08:59:11;6.72;;;2.85;;
37973;SDS011;23796;51.458;7.000;2023-04-23T09:01:40;7.22;;;3.30;;
37973;SDS011;23796;51.458;7.000;2023-04-23T09:04:18;5.38;;;2.95;;
37973;SDS011;23796;51.458;7.000;2023-04-23T09:06:47;8.27;;;2.80;;
37973;SDS011;23796;51.458;7.000;2023-04-23T09:09:14;6.43;;;2.88;;
37973;SDS011;23796;51.458;7.000;2023-04-23T09:11:50;6.82;;;2.83;;
37973;SDS011;23796;51.458;7.000;2023-04-23T09:15:11;5.53;;;2.65;;
37973;SDS011;23796;51.458;7.000;2023-04-23T09:17:47;6.25;;;2.72;;
37973;SDS011;23796;51.458;7.000;2023-04-23T09:20:21;5.85;;;3.00;;
37973;SDS011;23796;51.458;7.000;2023-04-23T09:23:08;5.47;;;2.25;;
37973;SDS011;23796;51.458;7.000;2023-04-23T09:25:48;5.13;;;1.90;;
37973;SDS011;23796;51.458;7.000;2023-04-23T09:28:19;5.05;;;2.25;;
37973;SDS011;23796;51.458;7.000;2023-04-23T09:30:57;5.40;;;2.75;;
37973;SDS011;23796;51.458;7.000;2023-04-23T09:33:33;6.65;;;3.00;;
37973;SDS011;23796;51.458;7.000;2023-04-23T09:36:08;5.60;;;2.28;;
37973;SDS011;23796;51.458;7.000;2023-04-23T09:38:38;5.60;;;2.42;;
37973;SDS011;23796;51.458;7.000;2023-04-23T09:44:08;6.60;;;2.60;;
37973;SDS011;23796;51.458;7.000;2023-04-23T09:46:42;5.72;;;2.67;;
37973;SDS011;23796;51.458;7.000;2023-04-23T09:49:11;5.10;;;2.00;;
37973;SDS011;23796;51.458;7.000;2023-04-23T09:51:42;5.85;;;2.30;;
37973;SDS011;23796;51.458;7.000;2023-04-23T09:54:13;4.28;;;2.25;;
37973;SDS011;23796;51.458;7.000;2023-04-23T09:57:00;4.30;;;1.63;;
37973;SDS011;23796;51.458;7.000;2023-04-23T09:59:33;4.30;;;1.48;;
37973;SDS011;23796;51.458;7.000;2023-04-23T10:02:13;5.82;;;1.67;;
37973;SDS011;23796;51.458;7.000;2023-04-23T10:04:50;3.85;;;1.48;;
37973;SDS011;23796;51.458;7.000;2023-04-23T10:07:17;3.25;;;1.60;;
37973;SDS011;23796;51.458;7.000;2023-04-23T10:09:43;4.15;;;1.58;;
37973;SDS011;23796;51.458;7.000;2023-04-23T10:12:08;4.25;;;1.80;;
37973;SDS011;23796;51.458;7.000;2023-04-23T10:14:35;4.53;;;2.08;;
37973;SDS011;23796;51.458;7.000;2023-04-23T10:17:03;5.22;;;1.95;;
37973;SDS011;23796;51.458;7.000;2023-04-23T10:19:29;5.57;;;2.15;;
37973;SDS011;23796;51.458;7.000;2023-04-23T10:21:59;5.50;;;2.15;;
37973;SDS011;23796;51.458;7.000;2023-04-23T10:24:31;5.80;;;1.85;;
37973;SDS011;23796;51.458;7.000;2023-04-23T10:27:00;4.63;;;1.67;;
37973;SDS011;23796;51.458;7.000;2023-04-23T10:29:32;4.43;;;1.52;;
37973;SDS011;23796;51.458;7.000;2023-04-23T10:32:02;3.70;;;1.80;;
37973;SDS011;23796;51.458;7.000;2023-04-23T10:34:29;4.45;;;1.77;;
37973;SDS011;23796;51.458;7.000;2023-04-23T10:36:56;4.03;;;1.70;;
37973;SDS011;23796;51.458;7.000;2023-04-23T10:39:24;3.55;;;1.20;;
37973;SDS011;23796;51.458;7.000;2023-04-23T10:41:54;4.65;;;1.80;;
37973;SDS011;23796;51.458;7.000;2023-04-23T10:44:21;4.00;;;1.60;;
37973;SDS011;23796;51.458;7.000;2023-04-23T10:46:51;4.40;;;1.73;;
37973;SDS011;23796;51.458;7.000;2023-04-23T10:49:18;6.22;;;1.70;;
37973;SDS011;23796;51.458;7.000;2023-04-23T10:51:47;3.20;;;1.77;;
37973;SDS011;23796;51.458;7.000;2023-04-23T10:54:14;4.18;;;1.48;;
37973;SDS011;23796;51.458;7.000;2023-04-23T10:56:40;4.10;;;1.40;;
37973;SDS011;23796;51.458;7.000;2023-04-23T10:59:18;2.72;;;1.10;;
37973;SDS011;23796;51.458;7.000;2023-04-23T11:01:45;4.15;;;1.40;;
37973;SDS011;23796;51.458;7.000;2023-04-23T11:04:21;5.72;;;2.03;;
37973;SDS011;23796;51.458;7.000;2023-04-23T11:09:58;4.43;;;1.20;;
37973;SDS011;23796;51.458;7.000;2023-04-23T11:12:05;4.10;;;1.25;;
37973;SDS011;23796;51.458;7.000;2023-04-23T11:14:58;4.45;;;1.00;;
37973;SDS011;23796;51.458;7.000;2023-04-23T11:20:06;4.32;;;1.50;;
37973;SDS011;23796;51.458;7.000;2023-04-23T11:25:12;4.38;;;1.42;;
37973;SDS011;23796;51.458;7.000;2023-04-23T11:27:45;6.90;;;2.10;;
37973;SDS011;23796;51.458;7.000;2023-04-23T11:30:12;5.00;;;1.02;;
37973;SDS011;23796;51.458;7.000;2023-04-23T11:32:40;3.95;;;1.48;;
37973;SDS011;23796;51.458;7.000;2023-04-23T11:35:08;4.55;;;1.27;;
37973;SDS011;23796;51.458;7.000;2023-04-23T11:37:41;4.65;;;2.35;;
37973;SDS011;23796;51.458;7.000;2023-04-23T11:40:10;4.55;;;1.15;;
37973;SDS011;23796;51.458;7.000;2023-04-23T11:42:41;4.20;;;1.10;;
37973;SDS011;23796;51.458;7.000;2023-04-23T11:47:45;3.33;;;1.00;;
37973;SDS011;23796;51.458;7.000;2023-04-23T11:50:16;3.22;;;0.93;;
37973;SDS011;23796;51.458;7.000;2023-04-23T11:52:43;4.70;;;1.40;;
37973;SDS011;23796;51.458;7.000;2023-04-23T11:55:11;6.53;;;1.27;;
37973;SDS011;23796;51.458;7.000;2023-04-23T11:57:41;4.03;;;1.10;;
37973;SDS011;23796;51.458;7.000;2023-04-23T12:05:18;3.15;;;1.08;;
37973;SDS011;23796;51.458;7.000;2023-04-23T12:07:48;2.97;;;1.17;;
37973;SDS011;23796;51.458;7.000;2023-04-23T12:10:16;4.00;;;1.40;;
37973;SDS011;23796;51.458;7.000;2023-04-23T12:12:48;4.05;;;1.30;;
37973;SDS011;23796;51.458;7.000;2023-04-23T12:15:17;3.78;;;1.38;;
37973;SDS011;23796;51.458;7.000;2023-04-23T12:17:47;2.92;;;1.33;;
37973;SDS011;23796;51.458;7.000;2023-04-23T12:20:32;4.07;;;1.42;;
37973;SDS011;23796;51.458;7.000;2023-04-23T12:23:02;3.53;;;1.23;;
37973;SDS011;23796;51.458;7.000;2023-04-23T12:25:29;4.05;;;1.30;;
37973;SDS011;23796;51.458;7.000;2023-04-23T12:27:57;5.07;;;1.42;;
37973;SDS011;23796;51.458;7.000;2023-04-23T12:30:27;6.13;;;1.55;;
37973;SDS011;23796;51.458;7.000;2023-04-23T12:32:59;3.53;;;1.15;;
37973;SDS011;23796;51.458;7.000;2023-04-23T12:38:04;5.10;;;1.30;;
37973;SDS011;23796;51.458;7.000;2023-04-23T12:40:46;4.15;;;1.25;;
37973;SDS011;23796;51.458;7.000;2023-04-23T12:43:12;4.22;;;1.15;;
37973;SDS011;23796;51.458;7.000;2023-04-23T12:45:42;4.63;;;1.20;;
37973;SDS011;23796;51.458;7.000;2023-04-23T12:48:09;2.72;;;0.90;;
37973;SDS011;23796;51.458;7.000;2023-04-23T12:50:35;5.47;;;1.00;;
37973;SDS011;23796;51.458;7.000;2023-04-23T12:53:01;3.20;;;1.08;;
37973;SDS011;23796;51.458;7.000;2023-04-23T12:55:27;2.63;;;0.80;;
37973;SDS011;23796;51.458;7.000;2023-04-23T12:57:52;3.40;;;0.90;;
37973;SDS011;23796;51.458;7.000;2023-04-23T13:00:21;3.58;;;1.40;;
37973;SDS011;23796;51.458;7.000;2023-04-23T13:02:47;3.88;;;0.95;;
37973;SDS011;23796;51.458;7.000;2023-04-23T13:05:15;2.65;;;1.10;;
37973;SDS011;23796;51.458;7.000;2023-04-23T13:07:43;3.30;;;1.25;;
37973;SDS011;23796;51.458;7.000;2023-04-23T13:10:09;2.90;;;0.90;;
37973;SDS011;23796;51.458;7.000;2023-04-23T13:12:35;3.67;;;0.85;;
37973;SDS011;23796;51.458;7.000;2023-04-23T13:15:04;4.22;;;0.60;;
37973;SDS011;23796;51.458;7.000;2023-04-23T13:17:31;3.80;;;0.70;;
37973;SDS011;23796;51.458;7.000;2023-04-23T13:19:56;2.55;;;0.88;;
37973;SDS011;23796;51.458;7.000;2023-04-23T13:22:23;2.58;;;0.93;;
37973;SDS011;23796;51.458;7.000;2023-04-23T13:24:52;4.00;;;1.15;;
37973;SDS011;23796;51.458;7.000;2023-04-23T13:27:19;2.90;;;0.70;;
37973;SDS011;23796;51.458;7.000;2023-04-23T13:29:47;3.30;;;0.70;;
37973;SDS011;23796;51.458;7.000;2023-04-23T13:32:12;3.90;;;0.88;;
37973;SDS011;23796;51.458;7.000;2023-04-23T13:34:40;4.07;;;0.90;;
37973;SDS011;23796;51.458;7.000;2023-04-23T13:37:08;5.72;;;0.70;;
37973;SDS011;23796;51.458;7.000;2023-04-23T13:39:34;2.42;;;1.00;;
37973;SDS011;23796;51.458;7.000;2023-04-23T13:42:00;3.97;;;1.00;;
37973;SDS011;23796;51.458;7.000;2023-04-23T13:44:28;3.38;;;0.80;;
37973;SDS011;23796;51.458;7.000;2023-04-23T13:46:54;2.55;;;0.68;;
37973;SDS011;23796;51.458;7.000;2023-04-23T13:49:23;5.63;;;1.45;;
37973;SDS011;23796;51.458;7.000;2023-04-23T13:51:49;5.47;;;0.95;;
37973;SDS011;23796;51.458;7.000;2023-04-23T13:54:18;4.07;;;1.10;;
37973;SDS011;23796;51.458;7.000;2023-04-23T13:56:44;3.08;;;0.70;;
37973;SDS011;23796;51.458;7.000;2023-04-23T13:59:10;4.15;;;0.85;;
37973;SDS011;23796;51.458;7.000;2023-04-23T14:01:38;2.85;;;0.90;;
37973;SDS011;23796;51.458;7.000;2023-04-23T14:04:06;2.38;;;0.88;;
37973;SDS011;23796;51.458;7.000;2023-04-23T14:06:31;2.47;;;0.90;;
37973;SDS011;23796;51.458;7.000;2023-04-23T14:08:57;3.58;;;0.80;;
37973;SDS011;23796;51.458;7.000;2023-04-23T14:11:23;2.78;;;0.85;;
37973;SDS011;23796;51.458;7.000;2023-04-23T14:13:51;3.63;;;1.00;;
37973;SDS011;23796;51.458;7.000;2023-04-23T14:16:20;3.10;;;0.60;;
37973;SDS011;23796;51.458;7.000;2023-04-23T14:18:45;2.40;;;0.50;;
37973;SDS011;23796;51.458;7.000;2023-04-23T14:21:11;2.17;;;0.80;;
37973;SDS011;23796;51.458;7.000;2023-04-23T14:23:55;3.40;;;0.77;;
37973;SDS011;23796;51.458;7.000;2023-04-23T14:28:56;2.92;;;0.80;;
37973;SDS011;23796;51.458;7.000;2023-04-23T14:31:28;2.63;;;0.98;;
37973;SDS011;23796;51.458;7.000;2023-04-23T14:33:54;3.58;;;0.88;;
37973;SDS011;23796;51.458;7.000;2023-04-23T14:36:23;3.00;;;0.82;;
37973;SDS011;23796;51.458;7.000;2023-04-23T14:38:51;4.20;;;0.90;;
37973;SDS011;23796;51.458;7.000;2023-04-23T14:41:18;4.03;;;0.90;;
37973;SDS011;23796;51.458;7.000;2023-04-23T14:43:44;2.67;;;0.75;;
37973;SDS011;23796;51.458;7.000;2023-04-23T14:46:11;3.35;;;0.68;;
37973;SDS011;23796;51.458;7.000;2023-04-23T14:48:36;1.73;;;0.63;;
37973;SDS011;23796;51.458;7.000;2023-04-23T14:51:02;2.72;;;0.68;;
37973;SDS011;23796;51.458;7.000;2023-04-23T14:53:33;2.50;;;0.70;;
37973;SDS011;23796;51.458;7.000;2023-04-23T14:55:58;2.47;;;0.85;;
37973;SDS011;23796;51.458;7.000;2023-04-23T14:58:24;2.00;;;0.55;;
37973;SDS011;23796;51.458;7.000;2023-04-23T15:00:49;5.68;;;1.05;;
37973;SDS011;23796;51.458;7.000;2023-04-23T15:03:15;2.28;;;0.60;;
37973;SDS011;23796;51.458;7.000;2023-04-23T15:05:41;3.60;;;0.77;;
37973;SDS011;23796;51.458;7.000;2023-04-23T15:08:09;2.40;;;0.70;;